Time;durP1;ratioP1;P1;durP2;ratioP2;P2;SDS_P1;SDS_P2;PMS_P1;PMS_P2;Temp;Humidity;BMP_temperature;BMP_pressure;BME280_temperature;BME280_humidity;BME280_pressure;Samples;Min_cycle;Max_cycle;Signal;HPM_P1;HPM_P2
2023/08/24 00:01:41;;;;;;;11.55;9.85;;;;;;;;;;5067546;28;20040;-76
2023/08/24 00:04:08;;;;;;;13.93;10.55;;;;;;;;;;5082990;28;20048;-76
2023/08/24 00:06:34;;;;;;;12.50;10.52;;;;;;;;;;5067649;28;20403;-76
2023/08/24 00:09:00;;;;;;;16.25;10.63;;;;;;;;;;5072304;28;20104;-77
2023/08/24 00:11:26;;;;;;;14.27;10.48;;;;;;;;;;5065566;28;20040;-76
2023/08/24 00:13:53;;;;;;;16.67;10.98;;;;;;;;;;5094015;28;20127;-76
2023/08/24 00:16:20;;;;;;;13.35;10.95;;;;;;;;;;5086624;28;20094;-77
2023/08/24 00:18:46;;;;;;;13.63;10.75;;;;;;;;;;5094385;28;20063;-77
2023/08/24 00:21:22;;;;;;;13.68;10.65;;;;;;;;;;5086043;28;20998;-76
2023/08/24 00:23:48;;;;;;;14.35;10.48;;;;;;;;;;5073668;28;20119;-77
2023/08/24 00:26:16;;;;;;;14.45;10.60;;;;;;;;;;5091864;28;20588;-76
2023/08/24 00:28:43;;;;;;;13.90;11.27;;;;;;;;;;5068666;28;20475;-77
2023/08/24 00:31:09;;;;;;;13.30;10.73;;;;;;;;;;5089042;28;20410;-76
2023/08/24 00:33:35;;;;;;;15.88;10.98;;;;;;;;;;5078479;28;20036;-77
2023/08/24 00:36:01;;;;;;;14.10;11.18;;;;;;;;;;5073887;28;20047;-76
2023/08/24 00:38:27;;;;;;;16.58;11.32;;;;;;;;;;5068713;28;20510;-77
2023/08/24 00:40:53;;;;;;;16.98;11.98;;;;;;;;;;5066088;28;21929;-76
2023/08/24 00:43:23;;;;;;;15.77;11.82;;;;;;;;;;5082071;28;20045;-76
2023/08/24 00:45:51;;;;;;;18.80;11.73;;;;;;;;;;5081809;28;20495;-76
2023/08/24 00:48:17;;;;;;;13.82;11.77;;;;;;;;;;5083916;28;20043;-77
2023/08/24 00:50:44;;;;;;;15.50;11.38;;;;;;;;;;5064213;28;20040;-76
2023/08/24 00:53:10;;;;;;;13.77;10.93;;;;;;;;;;5089586;28;20096;-76
2023/08/24 00:55:36;;;;;;;15.20;10.73;;;;;;;;;;5083523;28;20177;-76
2023/08/24 00:58:03;;;;;;;15.00;10.15;;;;;;;;;;5091140;28;20044;-76
2023/08/24 01:00:29;;;;;;;13.88;10.80;;;;;;;;;;5067791;28;20129;-76
2023/08/24 01:02:55;;;;;;;16.30;10.90;;;;;;;;;;5086201;28;20044;-76
2023/08/24 01:05:21;;;;;;;15.88;11.15;;;;;;;;;;5071152;28;20052;-76
2023/08/24 01:07:48;;;;;;;14.05;10.90;;;;;;;;;;5069416;28;20500;-77
2023/08/24 01:10:14;;;;;;;15.07;11.70;;;;;;;;;;5093240;28;20051;-76
2023/08/24 01:12:48;;;;;;;15.27;11.98;;;;;;;;;;5086402;28;20047;-77
2023/08/24 01:15:14;;;;;;;17.02;11.68;;;;;;;;;;5072157;28;20062;-77
2023/08/24 01:17:42;;;;;;;17.48;11.48;;;;;;;;;;5065817;28;20040;-77
2023/08/24 01:20:10;;;;;;;15.27;11.90;;;;;;;;;;5089523;28;20051;-77
2023/08/24 01:22:46;;;;;;;18.35;11.63;;;;;;;;;;5071204;28;20040;-76
2023/08/24 01:25:17;;;;;;;15.32;10.95;;;;;;;;;;5059105;28;20056;-76
2023/08/24 01:27:44;;;;;;;16.65;11.90;;;;;;;;;;5090627;28;20044;-77
2023/08/24 01:30:10;;;;;;;12.88;11.57;;;;;;;;;;5065808;28;20506;-76
2023/08/24 01:32:37;;;;;;;15.57;11.52;;;;;;;;;;5064213;28;20450;-76
2023/08/24 01:35:05;;;;;;;16.70;13.20;;;;;;;;;;5080490;28;23474;-77
2023/08/24 01:37:31;;;;;;;17.58;11.98;;;;;;;;;;5084041;28;20040;-77
2023/08/24 01:40:00;;;;;;;12.93;11.18;;;;;;;;;;5065407;28;20104;-76
2023/08/24 01:42:29;;;;;;;18.17;11.57;;;;;;;;;;5059536;28;20044;-76
2023/08/24 01:44:58;;;;;;;14.35;11.65;;;;;;;;;;5061249;28;20491;-76
2023/08/24 01:47:25;;;;;;;14.40;11.48;;;;;;;;;;5081764;28;20043;-76
2023/08/24 01:49:51;;;;;;;15.48;11.85;;;;;;;;;;5060298;28;20108;-75
2023/08/24 01:52:18;;;;;;;15.25;11.10;;;;;;;;;;5083188;28;20044;-76
2023/08/24 01:54:44;;;;;;;18.75;10.90;;;;;;;;;;5076889;28;20044;-76
2023/08/24 01:57:11;;;;;;;15.23;11.45;;;;;;;;;;5063856;28;20803;-76
2023/08/24 01:59:37;;;;;;;14.13;11.65;;;;;;;;;;5080428;28;20040;-76
2023/08/24 02:02:03;;;;;;;15.13;11.23;;;;;;;;;;5057475;28;20060;-75
2023/08/24 02:04:29;;;;;;;16.00;12.18;;;;;;;;;;5063026;28;20047;-75
2023/08/24 02:06:55;;;;;;;13.57;10.68;;;;;;;;;;5076210;28;20134;-76
2023/08/24 02:09:21;;;;;;;18.23;11.38;;;;;;;;;;5069613;28;20139;-76
2023/08/24 02:11:47;;;;;;;13.40;11.20;;;;;;;;;;5066615;28;20043;-76
2023/08/24 02:14:13;;;;;;;13.43;10.98;;;;;;;;;;5084069;28;20043;-76
2023/08/24 02:16:39;;;;;;;12.60;10.73;;;;;;;;;;5073536;28;20388;-76
2023/08/24 02:19:05;;;;;;;15.18;10.57;;;;;;;;;;5069034;28;20373;-76
2023/08/24 02:21:31;;;;;;;14.98;10.77;;;;;;;;;;5088663;28;20051;-75
2023/08/24 02:23:57;;;;;;;18.80;11.70;;;;;;;;;;5065570;28;20098;-76
2023/08/24 02:26:23;;;;;;;15.20;11.05;;;;;;;;;;5071576;28;20043;-76
2023/08/24 02:28:49;;;;;;;13.70;11.65;;;;;;;;;;5064003;28;20041;-75
2023/08/24 02:31:16;;;;;;;17.70;12.02;;;;;;;;;;5086536;28;20551;-76
2023/08/24 02:33:42;;;;;;;16.63;10.82;;;;;;;;;;5087301;28;20388;-76
2023/08/24 02:36:08;;;;;;;14.73;10.98;;;;;;;;;;5061003;28;20070;-75
2023/08/24 02:38:34;;;;;;;15.25;11.40;;;;;;;;;;5088149;28;20116;-75
2023/08/24 02:41:02;;;;;;;16.33;11.00;;;;;;;;;;5058875;28;20043;-76
2023/08/24 02:43:28;;;;;;;14.75;11.40;;;;;;;;;;5062688;28;20056;-76
2023/08/24 02:45:54;;;;;;;15.88;11.00;;;;;;;;;;5082571;28;20067;-75
2023/08/24 02:48:23;;;;;;;17.40;11.95;;;;;;;;;;5080405;28;20039;-76
2023/08/24 02:50:49;;;;;;;19.95;11.73;;;;;;;;;;5064034;28;20494;-76
2023/08/24 02:53:15;;;;;;;12.70;10.82;;;;;;;;;;5079272;28;20089;-76
2023/08/24 02:55:41;;;;;;;17.33;11.90;;;;;;;;;;5080062;28;20040;-75
2023/08/24 02:58:07;;;;;;;14.93;11.43;;;;;;;;;;5059762;28;20376;-76
2023/08/24 03:00:33;;;;;;;15.27;11.32;;;;;;;;;;5082633;28;20044;-76
2023/08/24 03:02:59;;;;;;;14.38;11.35;;;;;;;;;;5082855;28;20043;-76
2023/08/24 03:05:25;;;;;;;16.27;11.02;;;;;;;;;;5077524;28;20067;-75
2023/08/24 03:07:51;;;;;;;16.35;11.85;;;;;;;;;;5062211;28;20052;-76
2023/08/24 03:10:17;;;;;;;16.95;11.32;;;;;;;;;;5077565;28;20883;-76
2023/08/24 03:12:43;;;;;;;16.52;10.73;;;;;;;;;;5087488;28;20545;-75
2023/08/24 03:15:09;;;;;;;14.52;11.60;;;;;;;;;;5065829;28;20048;-76
2023/08/24 03:17:35;;;;;;;16.00;12.10;;;;;;;;;;5061379;28;20104;-76
2023/08/24 03:20:02;;;;;;;15.75;11.20;;;;;;;;;;5090086;28;20044;-76
2023/08/24 03:22:28;;;;;;;13.18;11.27;;;;;;;;;;5081505;28;20044;-76
2023/08/24 03:24:54;;;;;;;13.57;11.38;;;;;;;;;;5070228;28;20168;-76
2023/08/24 03:27:20;;;;;;;15.05;11.32;;;;;;;;;;5066494;28;20051;-76
2023/08/24 03:29:46;;;;;;;15.82;12.07;;;;;;;;;;5063776;28;20483;-76
2023/08/24 03:32:12;;;;;;;15.23;12.27;;;;;;;;;;5085706;28;20127;-76
2023/08/24 03:34:38;;;;;;;16.80;12.32;;;;;;;;;;5080728;28;20178;-76
2023/08/24 03:37:04;;;;;;;18.88;11.60;;;;;;;;;;5089455;28;20077;-76
2023/08/24 03:39:30;;;;;;;18.50;12.38;;;;;;;;;;5079789;28;20032;-76
2023/08/24 03:41:56;;;;;;;13.05;11.18;;;;;;;;;;5068147;28;20515;-76
2023/08/24 03:44:22;;;;;;;14.52;12.65;;;;;;;;;;5070024;28;20044;-75
2023/08/24 03:46:48;;;;;;;17.60;12.75;;;;;;;;;;5070519;28;20479;-76
2023/08/24 03:49:14;;;;;;;14.25;11.68;;;;;;;;;;5090422;28;20581;-76
2023/08/24 03:51:40;;;;;;;15.10;11.85;;;;;;;;;;5080185;28;20048;-76
2023/08/24 03:54:06;;;;;;;16.58;12.75;;;;;;;;;;5066703;28;20139;-76
2023/08/24 03:56:32;;;;;;;13.95;11.43;;;;;;;;;;5061965;28;20083;-76
2023/08/24 03:58:58;;;;;;;16.15;13.13;;;;;;;;;;5064650;28;20170;-76
2023/08/24 04:01:24;;;;;;;15.05;12.48;;;;;;;;;;5064724;28;20547;-76
2023/08/24 04:03:53;;;;;;;16.67;12.82;;;;;;;;;;5060622;28;20186;-76
2023/08/24 04:06:19;;;;;;;15.27;13.15;;;;;;;;;;5065311;28;20048;-76
2023/08/24 04:08:45;;;;;;;14.30;12.80;;;;;;;;;;5065597;28;20150;-76
2023/08/24 04:11:11;;;;;;;15.20;12.68;;;;;;;;;;5076540;28;20048;-77
2023/08/24 04:13:37;;;;;;;17.80;12.13;;;;;;;;;;5093113;28;20122;-75
2023/08/24 04:16:03;;;;;;;21.52;13.63;;;;;;;;;;5061047;28;20047;-76
2023/08/24 04:18:30;;;;;;;18.20;13.57;;;;;;;;;;5081424;28;20364;-75
2023/08/24 04:20:56;;;;;;;19.63;13.13;;;;;;;;;;5084605;28;20087;-76
2023/08/24 04:23:26;;;;;;;19.63;13.10;;;;;;;;;;5092871;28;20097;-76
2023/08/24 04:25:53;;;;;;;17.40;13.52;;;;;;;;;;5060886;28;20044;-75
2023/08/24 04:28:19;;;;;;;17.13;13.00;;;;;;;;;;5093494;28;20505;-76
2023/08/24 04:30:55;;;;;;;18.30;14.00;;;;;;;;;;5090790;28;20043;-76
2023/08/24 04:33:21;;;;;;;17.23;14.25;;;;;;;;;;5069030;28;20060;-76
2023/08/24 04:35:48;;;;;;;16.10;13.90;;;;;;;;;;5072435;28;20161;-76
2023/08/24 04:38:14;;;;;;;15.55;12.88;;;;;;;;;;5063115;28;20036;-76
2023/08/24 04:40:54;;;;;;;15.80;12.82;;;;;;;;;;5090085;28;20048;-75
2023/08/24 04:43:24;;;;;;;19.02;13.65;;;;;;;;;;5087265;28;20043;-76
2023/08/24 04:45:52;;;;;;;15.88;13.02;;;;;;;;;;5088954;28;20036;-75
2023/08/24 04:48:18;;;;;;;13.68;12.00;;;;;;;;;;5073061;28;20052;-76
2023/08/24 04:50:49;;;;;;;15.82;12.55;;;;;;;;;;5079570;28;20032;-75
2023/08/24 04:53:16;;;;;;;16.25;13.02;;;;;;;;;;5073154;28;20123;-76
2023/08/24 04:55:42;;;;;;;17.15;12.45;;;;;;;;;;5059381;28;20048;-76
2023/08/24 04:58:09;;;;;;;18.98;12.73;;;;;;;;;;5091026;28;20127;-77
2023/08/24 05:00:35;;;;;;;16.40;12.00;;;;;;;;;;5087049;28;20059;-76
2023/08/24 05:03:05;;;;;;;17.58;12.10;;;;;;;;;;5073035;28;20133;-76
2023/08/24 05:05:31;;;;;;;17.52;11.70;;;;;;;;;;5087076;28;20044;-76
2023/08/24 05:07:57;;;;;;;13.98;11.90;;;;;;;;;;5066016;28;20403;-76
2023/08/24 05:10:23;;;;;;;15.63;11.65;;;;;;;;;;5087897;28;20127;-76
2023/08/24 05:12:49;;;;;;;14.10;11.43;;;;;;;;;;5061861;28;20054;-76
2023/08/24 05:15:15;;;;;;;13.93;10.98;;;;;;;;;;5072405;28;20086;-76
2023/08/24 05:17:42;;;;;;;14.40;11.30;;;;;;;;;;5084070;28;20039;-75
2023/08/24 05:20:10;;;;;;;21.80;15.75;;;;;;;;;;5087555;28;20040;-76
2023/08/24 05:22:36;;;;;;;17.27;12.18;;;;;;;;;;5065296;28;20510;-75
2023/08/24 05:25:02;;;;;;;14.25;11.13;;;;;;;;;;5085539;28;20039;-76
2023/08/24 05:27:29;;;;;;;14.63;11.77;;;;;;;;;;5086744;28;20047;-76
2023/08/24 05:29:55;;;;;;;18.65;10.70;;;;;;;;;;5084440;28;20051;-76
2023/08/24 05:32:21;;;;;;;13.43;10.77;;;;;;;;;;5066668;28;20051;-77
2023/08/24 05:34:47;;;;;;;17.05;10.80;;;;;;;;;;5067776;28;20157;-76
2023/08/24 05:37:13;;;;;;;14.07;10.63;;;;;;;;;;5062538;28;20043;-76
2023/08/24 05:39:39;;;;;;;17.98;10.73;;;;;;;;;;5088928;28;20052;-76
2023/08/24 05:42:05;;;;;;;13.65;10.55;;;;;;;;;;5083538;28;20048;-76
2023/08/24 05:44:31;;;;;;;16.25;10.55;;;;;;;;;;5087285;28;20055;-76
2023/08/24 05:46:57;;;;;;;16.67;10.63;;;;;;;;;;5078088;28;20040;-76
2023/08/24 05:49:24;;;;;;;15.23;10.90;;;;;;;;;;5084475;28;20040;-76
2023/08/24 05:51:51;;;;;;;14.20;10.38;;;;;;;;;;5066742;28;20441;-76
2023/08/24 05:54:20;;;;;;;14.60;11.15;;;;;;;;;;5082812;28;20036;-76
2023/08/24 05:56:46;;;;;;;13.68;10.50;;;;;;;;;;5064284;28;20044;-76
2023/08/24 05:59:13;;;;;;;13.35;10.30;;;;;;;;;;5059027;28;20039;-76
2023/08/24 06:01:39;;;;;;;13.35;10.10;;;;;;;;;;5064012;28;20502;-76
2023/08/24 06:04:05;;;;;;;13.07;10.23;;;;;;;;;;5063210;28;20051;-76
2023/08/24 06:06:32;;;;;;;18.60;10.65;;;;;;;;;;5062192;28;20117;-76
2023/08/24 06:08:58;;;;;;;16.38;10.85;;;;;;;;;;5068726;28;20044;-77
2023/08/24 06:11:24;;;;;;;12.70;11.05;;;;;;;;;;5089113;28;20395;-76
2023/08/24 06:13:53;;;;;;;12.90;10.52;;;;;;;;;;5071510;28;20040;-76
2023/08/24 06:16:19;;;;;;;14.13;10.60;;;;;;;;;;5086241;28;20133;-76
2023/08/24 06:18:45;;;;;;;16.40;11.02;;;;;;;;;;5091367;28;20040;-77
2023/08/24 06:21:12;;;;;;;14.43;11.00;;;;;;;;;;5070082;28;20047;-76
2023/08/24 06:23:38;;;;;;;11.90;10.63;;;;;;;;;;5088379;28;20525;-76
2023/08/24 06:26:07;;;;;;;14.73;10.77;;;;;;;;;;5070546;28;20052;-76
2023/08/24 06:28:33;;;;;;;20.73;12.18;;;;;;;;;;5087042;28;20048;-77
2023/08/24 06:31:00;;;;;;;13.80;11.05;;;;;;;;;;5088143;28;20605;-77
2023/08/24 06:33:30;;;;;;;13.25;11.02;;;;;;;;;;5064705;28;20047;-77
2023/08/24 06:35:56;;;;;;;24.08;11.63;;;;;;;;;;5065056;28;20036;-76
2023/08/24 06:38:22;;;;;;;13.60;11.25;;;;;;;;;;5070821;28;20051;-77
2023/08/24 06:40:48;;;;;;;18.02;11.27;;;;;;;;;;5078048;28;20118;-77
2023/08/24 06:43:14;;;;;;;13.88;10.30;;;;;;;;;;5055848;28;20119;-78
2023/08/24 06:45:41;;;;;;;14.77;10.13;;;;;;;;;;5080984;28;20048;-78
2023/08/24 06:48:07;;;;;;;16.33;11.27;;;;;;;;;;5061401;28;20040;-78
2023/08/24 06:50:34;;;;;;;16.80;11.43;;;;;;;;;;5068446;28;20388;-78
2023/08/24 06:53:00;;;;;;;15.68;10.73;;;;;;;;;;5066269;28;20048;-78
2023/08/24 06:55:27;;;;;;;13.15;10.18;;;;;;;;;;5071510;28;20093;-76
2023/08/24 06:57:53;;;;;;;15.27;10.15;;;;;;;;;;5087251;28;20123;-77
2023/08/24 07:00:20;;;;;;;13.30;10.70;;;;;;;;;;5077351;28;20199;-76
2023/08/24 07:02:49;;;;;;;14.57;10.10;;;;;;;;;;5088236;28;20044;-76
2023/08/24 07:05:18;;;;;;;12.75;9.80;;;;;;;;;;5071823;28;20043;-75
2023/08/24 07:07:45;;;;;;;13.82;10.68;;;;;;;;;;5085332;28;20559;-75
2023/08/24 07:10:11;;;;;;;14.95;10.68;;;;;;;;;;5083329;28;20044;-75
2023/08/24 07:12:40;;;;;;;16.27;10.57;;;;;;;;;;5066558;28;20052;-74
2023/08/24 07:15:06;;;;;;;12.25;10.32;;;;;;;;;;5071524;28;20056;-75
2023/08/24 07:17:32;;;;;;;13.73;9.98;;;;;;;;;;5086862;28;20038;-77
2023/08/24 07:19:59;;;;;;;13.98;9.73;;;;;;;;;;5081561;28;20060;-74
2023/08/24 07:22:27;;;;;;;12.25;9.13;;;;;;;;;;5069125;28;20036;-76
2023/08/24 07:24:54;;;;;;;13.38;9.50;;;;;;;;;;5068227;28;20137;-74
2023/08/24 07:27:20;;;;;;;13.18;9.05;;;;;;;;;;5088492;28;20036;-74
2023/08/24 07:29:46;;;;;;;12.45;9.02;;;;;;;;;;5068191;28;20547;-74
2023/08/24 07:32:12;;;;;;;10.95;8.90;;;;;;;;;;5065338;28;20492;-74
2023/08/24 07:34:38;;;;;;;15.23;9.18;;;;;;;;;;5086576;28;20112;-75
2023/08/24 07:37:04;;;;;;;13.50;9.20;;;;;;;;;;5086806;28;20384;-74
2023/08/24 07:39:30;;;;;;;11.57;9.27;;;;;;;;;;5070469;28;20048;-73
2023/08/24 07:41:56;;;;;;;14.20;9.10;;;;;;;;;;5072899;28;20051;-74
2023/08/24 07:44:22;;;;;;;11.93;8.60;;;;;;;;;;5089700;28;20688;-74
2023/08/24 07:46:49;;;;;;;10.23;7.95;;;;;;;;;;5086253;28;20067;-74
2023/08/24 07:49:15;;;;;;;10.27;7.18;;;;;;;;;;5062412;28;20125;-74
2023/08/24 07:51:42;;;;;;;13.05;7.25;;;;;;;;;;5071899;28;20052;-75
2023/08/24 07:54:08;;;;;;;9.75;6.43;;;;;;;;;;5080860;28;20048;-74
2023/08/24 07:56:35;;;;;;;8.88;6.57;;;;;;;;;;5069396;28;20048;-74
2023/08/24 07:59:01;;;;;;;10.68;6.40;;;;;;;;;;5089517;28;20683;-75
2023/08/24 08:01:27;;;;;;;8.77;6.15;;;;;;;;;;5082366;28;20063;-74
2023/08/24 08:03:53;;;;;;;9.48;6.20;;;;;;;;;;5070992;28;20105;-74
2023/08/24 08:06:21;;;;;;;7.18;5.85;;;;;;;;;;5087028;28;20131;-75
2023/08/24 08:08:50;;;;;;;8.23;5.38;;;;;;;;;;5086615;28;20487;-75
2023/08/24 08:11:19;;;;;;;7.55;5.05;;;;;;;;;;5067983;28;20052;-76
2023/08/24 08:13:45;;;;;;;10.15;5.43;;;;;;;;;;5070579;28;20071;-75
2023/08/24 08:16:12;;;;;;;9.30;6.07;;;;;;;;;;5066019;28;20052;-75
2023/08/24 08:18:41;;;;;;;8.15;5.85;;;;;;;;;;5081168;28;20047;-75
2023/08/24 08:21:14;;;;;;;7.22;5.78;;;;;;;;;;5067775;28;20052;-75
2023/08/24 08:23:40;;;;;;;8.05;6.25;;;;;;;;;;5086565;28;20479;-74
2023/08/24 08:26:06;;;;;;;10.57;6.60;;;;;;;;;;5070097;28;20137;-74
2023/08/24 08:28:34;;;;;;;7.55;6.65;;;;;;;;;;5088159;28;20045;-75
2023/08/24 08:31:00;;;;;;;13.23;7.63;;;;;;;;;;5073069;28;20502;-75
2023/08/24 08:33:26;;;;;;;12.55;8.10;;;;;;;;;;5071855;28;20596;-74
2023/08/24 08:35:52;;;;;;;9.95;7.68;;;;;;;;;;5088698;28;20048;-75
2023/08/24 08:38:21;;;;;;;12.38;8.00;;;;;;;;;;5087012;28;20044;-75
2023/08/24 08:40:50;;;;;;;11.25;7.93;;;;;;;;;;5088407;28;20097;-75
2023/08/24 08:43:16;;;;;;;11.00;7.93;;;;;;;;;;5067897;28;20475;-75
2023/08/24 08:45:42;;;;;;;12.02;8.48;;;;;;;;;;5088737;28;20044;-75
2023/08/24 08:48:09;;;;;;;10.50;8.45;;;;;;;;;;5081559;28;20043;-75
2023/08/24 08:50:35;;;;;;;11.88;9.25;;;;;;;;;;5067196;28;20377;-75
2023/08/24 08:53:01;;;;;;;12.52;9.23;;;;;;;;;;5075974;28;20404;-75
2023/08/24 08:55:28;;;;;;;13.60;9.43;;;;;;;;;;5072314;28;20043;-75
2023/08/24 08:57:59;;;;;;;11.57;10.18;;;;;;;;;;5090504;28;20129;-75
2023/08/24 09:00:25;;;;;;;13.13;9.25;;;;;;;;;;5081849;28;20098;-75
2023/08/24 09:02:52;;;;;;;15.80;10.45;;;;;;;;;;5075936;28;20089;-75
2023/08/24 09:05:19;;;;;;;17.70;10.10;;;;;;;;;;5069804;28;20625;-75
2023/08/24 09:07:46;;;;;;;15.13;10.73;;;;;;;;;;5079759;28;20048;-75
2023/08/24 09:10:13;;;;;;;15.90;10.50;;;;;;;;;;5089934;28;20052;-75
2023/08/24 09:12:39;;;;;;;16.20;11.27;;;;;;;;;;5083997;28;20076;-75
2023/08/24 09:15:06;;;;;;;16.02;11.05;;;;;;;;;;5074627;28;20393;-75
2023/08/24 09:17:33;;;;;;;14.02;10.35;;;;;;;;;;5069070;28;20060;-75
2023/08/24 09:19:59;;;;;;;15.38;11.02;;;;;;;;;;5094415;28;20072;-75
2023/08/24 09:22:25;;;;;;;14.48;10.88;;;;;;;;;;5091544;28;20135;-75
2023/08/24 09:24:52;;;;;;;16.25;11.23;;;;;;;;;;5070320;28;20079;-75
2023/08/24 09:27:19;;;;;;;13.40;11.15;;;;;;;;;;5071936;28;20071;-75
2023/08/24 09:29:50;;;;;;;14.55;11.32;;;;;;;;;;5080950;28;20228;-75
2023/08/24 09:32:16;;;;;;;14.48;11.45;;;;;;;;;;5091534;28;20055;-75
2023/08/24 09:34:43;;;;;;;15.43;11.32;;;;;;;;;;5087031;28;20100;-75
2023/08/24 09:37:15;;;;;;;15.10;12.02;;;;;;;;;;5071555;28;20418;-76
2023/08/24 09:39:42;;;;;;;16.30;12.77;;;;;;;;;;5067883;28;20050;-75
2023/08/24 09:42:08;;;;;;;17.48;12.10;;;;;;;;;;5084221;28;20044;-75
2023/08/24 09:44:34;;;;;;;17.58;12.75;;;;;;;;;;5089360;28;20071;-74
2023/08/24 09:47:00;;;;;;;17.75;13.10;;;;;;;;;;5085482;28;20039;-75
2023/08/24 09:49:28;;;;;;;18.80;12.90;;;;;;;;;;5074640;28;20054;-76
2023/08/24 09:51:58;;;;;;;22.85;13.40;;;;;;;;;;5067069;28;20051;-75
2023/08/24 09:54:28;;;;;;;18.55;13.82;;;;;;;;;;5090564;28;20049;-75
2023/08/24 09:56:56;;;;;;;24.73;14.05;;;;;;;;;;5069658;28;20069;-75
2023/08/24 09:59:24;;;;;;;19.23;13.43;;;;;;;;;;5070649;28;20193;-75
2023/08/24 10:01:54;;;;;;;22.35;14.70;;;;;;;;;;5064784;28;20047;-76
2023/08/24 10:04:25;;;;;;;20.52;14.10;;;;;;;;;;5088890;28;20048;-76
2023/08/24 10:07:07;;;;;;;20.10;14.15;;;;;;;;;;5086327;28;20060;-76
2023/08/24 10:09:41;;;;;;;21.17;14.25;;;;;;;;;;5061622;28;20101;-76
2023/08/24 10:12:08;;;;;;;16.90;13.70;;;;;;;;;;5069648;28;20052;-75
2023/08/24 10:14:52;;;;;;;18.13;13.95;;;;;;;;;;5069634;28;20597;-75
2023/08/24 10:17:19;;;;;;;19.70;13.48;;;;;;;;;;5085451;28;20051;-76
2023/08/24 10:19:45;;;;;;;20.10;13.38;;;;;;;;;;5087434;28;20556;-76
2023/08/24 10:22:12;;;;;;;22.00;13.65;;;;;;;;;;5088544;28;20055;-75
2023/08/24 10:24:38;;;;;;;21.85;14.40;;;;;;;;;;5089402;28;20107;-75
2023/08/24 10:27:04;;;;;;;19.50;14.38;;;;;;;;;;5070746;28;20135;-76
2023/08/24 10:29:30;;;;;;;21.63;15.00;;;;;;;;;;5070622;28;20048;-74
2023/08/24 10:31:57;;;;;;;17.60;14.52;;;;;;;;;;5089716;28;20040;-74
2023/08/24 10:34:23;;;;;;;20.77;13.95;;;;;;;;;;5073234;28;20083;-75
2023/08/24 10:36:49;;;;;;;20.75;14.88;;;;;;;;;;5083573;28;20510;-75
2023/08/24 10:39:16;;;;;;;19.42;15.55;;;;;;;;;;5073717;28;20052;-75
2023/08/24 10:41:49;;;;;;;19.73;15.95;;;;;;;;;;5082110;28;20072;-75
2023/08/24 10:44:25;;;;;;;22.50;15.77;;;;;;;;;;5072524;28;20055;-75
2023/08/24 10:47:07;;;;;;;24.02;15.80;;;;;;;;;;5069239;28;20551;-75
2023/08/24 10:49:33;;;;;;;20.23;15.48;;;;;;;;;;5083822;28;20047;-74
2023/08/24 10:52:17;;;;;;;25.90;16.40;;;;;;;;;;5067251;28;20063;-76
2023/08/24 10:54:48;;;;;;;21.48;15.90;;;;;;;;;;5070851;28;20044;-78
2023/08/24 10:57:35;;;;;;;21.58;15.40;;;;;;;;;;5071189;28;20052;-85
2023/08/24 11:00:05;;;;;;;21.23;16.38;;;;;;;;;;5082176;28;20115;-76
2023/08/24 11:02:42;;;;;;;24.15;16.95;;;;;;;;;;5092003;28;20051;-77
2023/08/24 11:05:16;;;;;;;24.52;16.17;;;;;;;;;;5085893;28;20064;-83
2023/08/24 11:07:50;;;;;;;23.52;16.23;;;;;;;;;;5089987;28;20059;-79
2023/08/24 11:10:16;;;;;;;23.00;16.25;;;;;;;;;;5069678;28;20044;-75
2023/08/24 11:13:01;;;;;;;24.63;17.27;;;;;;;;;;5061819;28;20487;-85
2023/08/24 11:15:37;;;;;;;24.95;17.77;;;;;;;;;;5088799;28;20498;-85
2023/08/24 11:18:16;;;;;;;22.85;16.92;;;;;;;;;;5085741;28;20044;-85
2023/08/24 11:20:49;;;;;;;21.83;17.00;;;;;;;;;;5073024;28;20093;-87
2023/08/24 11:23:16;;;;;;;27.35;17.63;;;;;;;;;;5089757;28;20048;-83
2023/08/24 11:25:42;;;;;;;25.02;17.08;;;;;;;;;;5068152;28;20072;-87
2023/08/24 11:28:08;;;;;;;22.95;17.25;;;;;;;;;;5087264;28;20094;-76
2023/08/24 11:30:34;;;;;;;20.92;17.38;;;;;;;;;;5088277;28;20058;-76
2023/08/24 11:33:02;;;;;;;26.45;18.38;;;;;;;;;;5089634;28;20085;-78
2023/08/24 11:35:28;;;;;;;25.23;18.90;;;;;;;;;;5074041;28;20553;-77
2023/08/24 11:37:54;;;;;;;24.13;18.33;;;;;;;;;;5094326;28;20063;-77
2023/08/24 11:40:20;;;;;;;22.45;18.65;;;;;;;;;;5090018;28;20040;-77
2023/08/24 11:42:47;;;;;;;25.13;18.58;;;;;;;;;;5065317;28;20499;-77
2023/08/24 11:45:16;;;;;;;24.70;19.75;;;;;;;;;;5085566;28;20036;-78
2023/08/24 11:47:43;;;;;;;21.45;17.63;;;;;;;;;;5071408;28;20127;-77
2023/08/24 11:50:09;;;;;;;28.15;19.15;;;;;;;;;;5090139;28;20040;-77
2023/08/24 11:52:44;;;;;;;24.88;19.52;;;;;;;;;;5092292;28;20113;-77
2023/08/24 11:55:11;;;;;;;28.65;20.17;;;;;;;;;;5095884;28;20483;-77
2023/08/24 11:57:37;;;;;;;23.60;18.80;;;;;;;;;;5069507;28;20044;-78
2023/08/24 12:00:04;;;;;;;25.23;19.95;;;;;;;;;;5088867;28;20138;-77
2023/08/24 12:02:30;;;;;;;23.88;19.17;;;;;;;;;;5064312;28;20051;-78
2023/08/24 12:04:57;;;;;;;24.27;20.33;;;;;;;;;;5093769;28;20043;-77
2023/08/24 12:07:23;;;;;;;25.67;20.67;;;;;;;;;;5090814;28;20083;-78
2023/08/24 12:09:52;;;;;;;25.60;20.55;;;;;;;;;;5077254;28;20052;-78
2023/08/24 12:12:20;;;;;;;24.00;20.75;;;;;;;;;;5071253;28;20086;-78
2023/08/24 12:14:47;;;;;;;25.55;21.40;;;;;;;;;;5088377;28;20075;-79
2023/08/24 12:17:13;;;;;;;24.77;21.70;;;;;;;;;;5074849;28;20084;-78
2023/08/24 12:19:46;;;;;;;27.50;22.30;;;;;;;;;;5073303;28;20506;-78
2023/08/24 12:22:20;;;;;;;27.50;23.42;;;;;;;;;;5069935;28;20054;-79
2023/08/24 12:24:46;;;;;;;29.75;23.55;;;;;;;;;;5094456;28;20132;-78
2023/08/24 12:27:18;;;;;;;28.67;23.80;;;;;;;;;;5081868;28;20479;-78
2023/08/24 12:29:45;;;;;;;25.52;22.92;;;;;;;;;;5102571;28;20047;-78
2023/08/24 12:32:11;;;;;;;28.05;23.65;;;;;;;;;;5089486;28;20048;-78
2023/08/24 12:34:37;;;;;;;26.33;23.40;;;;;;;;;;5075766;28;20119;-78
2023/08/24 12:37:03;;;;;;;28.00;25.05;;;;;;;;;;5093816;28;20127;-79
2023/08/24 12:39:35;;;;;;;28.48;25.55;;;;;;;;;;5092387;28;20044;-81
2023/08/24 12:42:01;;;;;;;27.58;24.55;;;;;;;;;;5064521;28;20040;-77
2023/08/24 12:44:27;;;;;;;29.30;25.08;;;;;;;;;;5090982;28;20502;-78
2023/08/24 12:46:53;;;;;;;27.98;25.00;;;;;;;;;;5069988;28;20057;-77
2023/08/24 12:49:19;;;;;;;25.95;23.35;;;;;;;;;;5074692;28;20055;-77
2023/08/24 12:51:45;;;;;;;25.95;23.15;;;;;;;;;;5089933;28;20078;-77
2023/08/24 12:54:12;;;;;;;27.70;23.05;;;;;;;;;;5072020;28;20448;-77
2023/08/24 12:56:39;;;;;;;24.73;18.85;;;;;;;;;;5092404;28;20131;-76
2023/08/24 12:59:05;;;;;;;26.98;18.63;;;;;;;;;;5069598;28;20040;-77
2023/08/24 13:01:31;;;;;;;20.92;18.05;;;;;;;;;;5086083;28;20093;-78
2023/08/24 13:03:57;;;;;;;21.13;17.02;;;;;;;;;;5072353;28;20060;-84
2023/08/24 13:06:23;;;;;;;19.77;16.20;;;;;;;;;;5062280;28;20052;-82
2023/08/24 13:08:49;;;;;;;19.33;16.15;;;;;;;;;;5090980;28;20067;-79
2023/08/24 13:11:15;;;;;;;19.35;15.20;;;;;;;;;;5078906;28;20040;-82
2023/08/24 13:13:45;;;;;;;16.67;14.88;;;;;;;;;;5090221;28;20044;-81
2023/08/24 13:16:11;;;;;;;19.52;14.95;;;;;;;;;;5064821;28;20110;-81
2023/08/24 13:18:38;;;;;;;22.50;14.93;;;;;;;;;;5088099;28;20048;-78
2023/08/24 13:21:04;;;;;;;17.25;14.73;;;;;;;;;;5092692;28;20079;-78
2023/08/24 13:23:30;;;;;;;16.65;14.55;;;;;;;;;;5086599;28;20098;-78
2023/08/24 13:25:59;;;;;;;15.55;12.57;;;;;;;;;;5070542;28;20040;-77
2023/08/24 13:28:25;;;;;;;16.45;13.18;;;;;;;;;;5065031;28;20533;-79
2023/08/24 13:30:51;;;;;;;16.52;12.75;;;;;;;;;;5068588;28;20040;-83
2023/08/24 13:33:19;;;;;;;14.75;13.18;;;;;;;;;;5088075;28;20059;-79
2023/08/24 13:35:45;;;;;;;12.68;8.88;;;;;;;;;;5091518;28;20048;-82
2023/08/24 13:38:11;;;;;;;11.13;8.18;;;;;;;;;;5090164;28;20124;-83
2023/08/24 13:40:37;;;;;;;12.85;8.63;;;;;;;;;;5084693;28;20509;-81
2023/08/24 13:43:04;;;;;;;12.18;7.65;;;;;;;;;;5090592;28;20094;-83
2023/08/24 13:45:34;;;;;;;10.52;7.07;;;;;;;;;;5085933;28;20044;-82
2023/08/24 13:48:00;;;;;;;14.55;7.07;;;;;;;;;;5089354;28;20040;-79
2023/08/24 13:50:26;;;;;;;13.38;8.02;;;;;;;;;;5067381;28;20051;-78
2023/08/24 13:52:53;;;;;;;10.48;7.90;;;;;;;;;;5069066;28;20454;-76
2023/08/24 13:55:19;;;;;;;13.80;8.38;;;;;;;;;;5090003;28;20439;-78
2023/08/24 13:57:45;;;;;;;11.98;7.00;;;;;;;;;;5060369;28;20553;-78
2023/08/24 14:00:11;;;;;;;13.52;7.30;;;;;;;;;;5080530;28;20083;-79
2023/08/24 14:02:37;;;;;;;11.07;7.15;;;;;;;;;;5068839;28;20047;-78
2023/08/24 14:05:05;;;;;;;10.52;7.40;;;;;;;;;;5054296;28;20048;-79
2023/08/24 14:07:32;;;;;;;13.20;7.25;;;;;;;;;;5069736;28;20113;-77
2023/08/24 14:09:58;;;;;;;9.32;6.95;;;;;;;;;;5094531;28;20040;-80
2023/08/24 14:12:24;;;;;;;12.13;8.70;;;;;;;;;;5093749;28;20043;-78
2023/08/24 14:14:50;;;;;;;14.70;8.48;;;;;;;;;;5090388;28;20147;-78
2023/08/24 14:17:16;;;;;;;13.40;9.40;;;;;;;;;;5085520;28;20511;-79
2023/08/24 14:19:42;;;;;;;14.70;10.70;;;;;;;;;;5068667;28;20487;-78